Time;durP1;ratioP1;P1;durP2;ratioP2;P2;SDS_P1;SDS_P2;PMS_P1;PMS_P2;Temp;Humidity;BMP_temperature;BMP_pressure;BME280_temperature;BME280_humidity;BME280_pressure;Samples;Min_cycle;Max_cycle;Signal;HPM_P1;HPM_P2
2022/06/19 00:03:15;;;;;;;8.98;7.38;;;13.90;99.90;;;;;;20958132;28;20037;-57
2022/06/19 00:13:18;;;;;;;10.20;7.75;;;13.80;99.90;;;;;;21056117;28;20548;-52
2022/06/19 00:23:20;;;;;;;12.63;8.48;;;13.80;99.90;;;;;;21056335;28;20498;-57
2022/06/19 00:33:23;;;;;;;14.48;8.20;;;14.00;99.90;;;;;;21055883;28;20085;-57
2022/06/19 00:43:25;;;;;;;11.18;7.95;;;14.20;99.90;;;;;;21054598;28;20040;-51
2022/06/19 00:53:36;;;;;;;14.50;8.93;;;14.30;99.90;;;;;;21045102;28;20044;-57
2022/06/19 01:04:04;;;;;;;12.68;9.55;;;14.10;99.90;;;;;;20986710;28;20032;-57
2022/06/19 01:14:11;;;;;;;12.07;8.07;;;14.00;99.90;;;;;;20986115;28;20037;-57
2022/06/19 01:24:13;;;;;;;9.45;8.02;;;14.20;99.90;;;;;;21060155;22;20414;-48
2022/06/19 01:34:31;;;;;;;9.77;7.22;;;14.20;99.90;;;;;;21135441;28;20432;-52
2022/06/19 01:44:35;;;;;;;8.85;7.30;;;14.10;99.90;;;;;;21134963;28;20043;-57
2022/06/19 01:54:44;;;;;;;10.40;7.80;;;14.00;99.90;;;;;;21118230;28;20039;-50
2022/06/19 02:04:46;;;;;;;12.15;7.82;;;13.70;99.90;;;;;;21134789;28;20088;-47
2022/06/19 02:14:50;;;;;;;10.25;7.93;;;13.60;99.90;;;;;;21053728;28;20082;-50
2022/06/19 02:24:53;;;;;;;11.57;9.15;;;13.50;99.90;;;;;;21048826;28;20403;-56
2022/06/19 02:34:55;;;;;;;11.02;7.68;;;13.60;99.90;;;;;;21054867;28;20031;-51
2022/06/19 02:45:02;;;;;;;10.68;7.88;;;13.60;99.90;;;;;;21064430;28;20036;-50
2022/06/19 02:55:07;;;;;;;11.00;7.72;;;13.40;99.90;;;;;;21086125;28;20440;-50
2022/06/19 03:05:20;;;;;;;10.15;7.28;;;13.40;99.90;;;;;;21147590;28;20096;-57
2022/06/19 03:15:23;;;;;;;9.98;7.45;;;13.40;99.90;;;;;;21146313;28;20043;-50
2022/06/19 03:25:25;;;;;;;9.05;6.20;;;13.30;99.90;;;;;;21145409;28;20048;-48
2022/06/19 03:35:28;;;;;;;6.97;5.65;;;13.20;99.90;;;;;;21123709;28;20097;-49
2022/06/19 03:45:30;;;;;;;8.27;5.35;;;13.20;99.90;;;;;;21058656;28;20040;-57
2022/06/19 03:55:34;;;;;;;7.45;5.47;;;13.10;99.90;;;;;;21060787;28;20081;-48
2022/06/19 04:05:36;;;;;;;6.68;3.63;;;13.10;99.90;;;;;;21061239;28;20036;-57
2022/06/19 04:15:39;;;;;;;7.72;3.58;;;13.30;99.90;;;;;;21141428;28;20155;-58
2022/06/19 04:25:45;;;;;;;4.78;3.80;;;13.30;99.90;;;;;;21140460;28;20098;-53
2022/06/19 04:35:48;;;;;;;4.47;2.90;;;13.40;99.90;;;;;;21140247;28;20036;-57
2022/06/19 04:45:51;;;;;;;6.68;3.33;;;13.50;99.90;;;;;;21138967;28;20028;-51
2022/06/19 04:55:54;;;;;;;5.80;2.95;;;13.50;99.90;;;;;;21108755;28;20036;-57
2022/06/19 05:05:57;;;;;;;14.02;3.40;;;13.50;99.90;;;;;;21053259;28;20077;-57
2022/06/19 05:16:07;;;;;;;6.22;4.00;;;13.70;99.90;;;;;;21052427;28;20449;-58
2022/06/19 05:26:18;;;;;;;12.60;4.70;;;13.90;99.90;;;;;;21051498;28;20040;-58
2022/06/19 05:36:22;;;;;;;8.02;5.15;;;14.10;99.90;;;;;;21079739;28;20372;-54
2022/06/19 05:46:25;;;;;;;6.80;5.07;;;14.30;99.90;;;;;;21134476;28;20039;-49
2022/06/19 05:56:28;;;;;;;7.05;4.70;;;14.50;99.90;;;;;;21133968;28;20035;-58
2022/06/19 06:06:32;;;;;;;5.38;4.15;;;14.90;99.90;;;;;;21124285;28;20032;-50
2022/06/19 06:16:34;;;;;;;7.60;4.13;;;15.90;99.90;;;;;;21066525;28;20040;-54
2022/06/19 06:26:37;;;;;;;5.05;2.95;;;20.80;99.90;;;;;;21065981;28;20070;-54
2022/06/19 06:36:39;;;;;;;5.63;3.08;;;23.40;99.50;;;;;;21065389;28;20753;-57
2022/06/19 06:46:42;;;;;;;3.20;2.90;;;25.60;95.70;;;;;;21063125;28;20092;-57
2022/06/19 06:56:47;;;;;;;3.05;2.78;;;27.30;91.30;;;;;;21099752;28;20904;-57
2022/06/19 07:06:49;;;;;;;5.57;4.03;;;29.20;84.90;;;;;;21146924;28;20035;-61
2022/06/19 07:16:52;;;;;;;4.25;3.70;;;30.40;79.50;;;;;;21146153;28;20398;-61
2022/06/19 07:26:54;;;;;;;4.53;3.60;;;30.80;77.40;;;;;;21145027;28;20433;-58
2022/06/19 07:36:57;;;;;;;3.87;3.53;;;31.20;73.80;;;;;;21110534;28;20036;-58
2022/06/19 07:57:21;;;;;;;4.00;3.17;;;31.20;71.80;;;;;;21059888;28;20028;-58
2022/06/19 08:07:24;;;;;;;5.28;3.78;;;31.10;71.90;;;;;;21075371;28;20036;-62
2022/06/19 08:17:27;;;;;;;5.80;3.20;;;30.40;72.60;;;;;;21140847;28;20084;-61
2022/06/19 08:27:30;;;;;;;3.50;3.10;;;29.60;73.00;;;;;;21140157;28;20448;-63
2022/06/19 08:37:35;;;;;;;3.50;3.17;;;29.10;74.80;;;;;;21141071;28;20032;-61
2022/06/19 08:48:13;;;;;;;9.23;3.05;;;28.90;74.30;;;;;;21137883;28;20159;-62
2022/06/19 08:58:35;;;;;;;3.00;2.70;;;28.90;75.60;;;;;;21088165;28;20036;-58
2022/06/19 09:09:03;;;;;;;2.78;2.30;;;28.60;77.00;;;;;;21052628;28;20081;-63
2022/06/19 09:19:15;;;;;;;3.90;2.45;;;28.60;72.30;;;;;;21052212;28;20036;-63
2022/06/19 09:29:33;;;;;;;3.25;2.05;;;28.60;74.90;;;;;;21051296;28;20105;-63
2022/06/19 09:39:50;;;;;;;5.00;2.38;;;28.60;73.20;;;;;;21105855;28;20081;-58
2022/06/19 09:50:21;;;;;;;2.83;1.92;;;28.80;73.30;;;;;;21134354;28;20032;-58
2022/06/19 10:00:29;;;;;;;4.93;2.08;;;28.80;76.80;;;;;;21132786;28;20074;-57
2022/06/19 10:10:43;;;;;;;5.32;1.67;;;28.60;72.70;;;;;;21088463;28;20094;-57
2022/06/19 10:21:11;;;;;;;2.13;1.60;;;28.50;72.20;;;;;;21047839;28;20491;-58
2022/06/19 10:31:40;;;;;;;2.90;2.00;;;28.10;77.50;;;;;;21048063;28;20377;-62
2022/06/19 10:42:07;;;;;;;1.90;1.80;;;28.60;76.60;;;;;;21047919;28;20069;-58
2022/06/19 10:52:16;;;;;;;5.50;2.30;;;28.40;76.50;;;;;;21047523;28;20043;-58
2022/06/19 11:12:58;;;;;;;3.28;1.70;;;28.60;76.30;;;;;;21143188;22;20429;-62
2022/06/19 11:23:19;;;;;;;3.80;2.10;;;28.80;76.20;;;;;;21061637;28;20024;-62
2022/06/19 11:33:35;;;;;;;7.57;2.08;;;28.80;75.40;;;;;;21060017;28;20028;-63
2022/06/19 11:43:38;;;;;;;4.60;1.90;;;28.80;76.70;;;;;;21059859;28;20039;-63
2022/06/19 11:53:43;;;;;;;2.78;1.98;;;28.70;74.50;;;;;;21059702;28;20089;-63
2022/06/19 12:03:55;;;;;;;4.38;1.60;;;28.60;76.60;;;;;;21057483;28;20040;-63
2022/06/19 12:13:58;;;;;;;4.70;1.70;;;28.70;77.60;;;;;;20984848;28;20049;-62
2022/06/19 12:24:15;;;;;;;4.97;2.00;;;28.60;78.00;;;;;;20973400;28;20487;-63
2022/06/19 12:34:33;;;;;;;7.90;2.28;;;28.80;77.20;;;;;;20972210;28;20036;-63
2022/06/19 12:44:38;;;;;;;4.28;2.10;;;29.10;74.50;;;;;;20971479;28;20032;-63
2022/06/19 12:54:48;;;;;;;4.67;1.60;;;29.20;73.40;;;;;;20989349;28;20377;-63
2022/06/19 13:04:55;;;;;;;5.57;2.10;;;28.70;81.20;;;;;;21052446;28;20398;-62
2022/06/19 13:15:23;;;;;;;3.30;2.30;;;28.80;75.90;;;;;;21052327;28;20066;-63
2022/06/19 13:26:04;;;;;;;5.78;2.47;;;28.90;75.20;;;;;;21019093;28;20440;-63
2022/06/19 13:36:19;;;;;;;5.07;2.40;;;29.50;74.70;;;;;;21038099;28;20048;-63
2022/06/19 13:46:56;;;;;;;7.90;2.53;;;29.30;74.80;;;;;;21050393;28;20085;-62
2022/06/19 13:57:22;;;;;;;4.75;2.63;;;29.30;75.80;;;;;;21049978;28;20100;-62
2022/06/19 14:07:51;;;;;;;6.13;2.83;;;29.50;73.60;;;;;;21031661;28;20552;-63
2022/06/19 14:18:04;;;;;;;4.60;2.70;;;29.80;73.80;;;;;;20965604;28;20052;-63
2022/06/19 14:28:19;;;;;;;5.40;2.78;;;30.20;71.70;;;;;;20966831;28;20232;-63
2022/06/19 14:38:30;;;;;;;6.53;3.65;;;30.80;74.40;;;;;;20981682;28;20037;-63
2022/06/19 14:49:18;;;;;;;5.75;3.55;;;31.50;68.70;;;;;;20980515;28;20041;-63
2022/06/19 14:59:34;;;;;;;5.55;3.20;;;32.00;69.30;;;;;;20780400;28;20042;-62
2022/06/19 15:10:19;;;;;;;10.05;3.35;;;31.80;69.80;;;;;;20804685;28;20049;-63
2022/06/19 15:20:29;;;;;;;8.32;3.30;;;32.20;70.20;;;;;;20797188;28;20072;-62
2022/06/19 15:30:40;;;;;;;6.57;3.72;;;32.20;68.10;;;;;;20917433;28;20059;-62
2022/06/19 15:40:45;;;;;;;6.75;3.78;;;32.30;65.60;;;;;;20995098;28;20032;-63
2022/06/19 15:50:54;;;;;;;8.15;3.38;;;32.00;68.00;;;;;;20975571;28;20037;-62
2022/06/19 16:01:16;;;;;;;9.20;4.10;;;31.20;67.20;;;;;;20974675;28;20105;-61
2022/06/19 16:11:35;;;;;;;3.42;3.00;;;29.60;69.70;;;;;;21024220;28;20105;-61
2022/06/19 16:21:46;;;;;;;9.32;3.20;;;27.20;75.80;;;;;;20989923;28;20049;-61
2022/06/19 16:32:07;;;;;;;8.55;3.10;;;;;;;;;;20989664;28;20040;-61
2022/06/19 16:52:55;;;;;;;10.13;6.65;;;24.70;76.90;;;;;;20984200;28;20045;-58
2022/06/19 17:03:07;;;;;;;8.00;4.57;;;23.40;80.90;;;;;;20904300;28;20450;-58
2022/06/19 17:13:19;;;;;;;6.05;3.50;;;21.60;87.30;;;;;;20914487;28;20078;-52
2022/06/19 17:23:27;;;;;;;4.03;3.15;;;20.50;90.90;;;;;;20968901;28;20036;-59
2022/06/19 17:33:33;;;;;;;6.38;3.17;;;19.80;92.30;;;;;;20972542;28;20036;-52
2022/06/19 17:43:39;;;;;;;5.90;3.50;;;19.30;93.60;;;;;;21050405;28;20121;-57
2022/06/19 17:53:44;;;;;;;7.60;3.92;;;18.90;94.60;;;;;;21049724;28;20055;-58
2022/06/19 18:03:53;;;;;;;7.72;3.95;;;18.70;94.30;;;;;;21049020;28;20040;-58
2022/06/19 18:14:11;;;;;;;6.03;3.87;;;18.60;94.80;;;;;;20977027;28;20519;-58
2022/06/19 18:24:18;;;;;;;5.30;3.60;;;18.50;94.80;;;;;;20965579;28;20487;-57
2022/06/19 18:34:21;;;;;;;8.25;3.47;;;18.20;95.60;;;;;;20965471;28;20553;-57
2022/06/19 18:44:29;;;;;;;11.00;4.15;;;18.00;95.70;;;;;;20949238;28;20702;-57
2022/06/19 18:54:34;;;;;;;7.05;3.92;;;17.80;96.50;;;;;;20981921;28;20028;-57
2022/06/19 19:04:37;;;;;;;6.45;3.53;;;17.70;96.40;;;;;;21048329;28;20040;-50
2022/06/19 19:14:40;;;;;;;7.57;4.10;;;17.60;97.00;;;;;;21049216;28;20048;-51
2022/06/19 19:24:44;;;;;;;6.85;3.60;;;17.30;97.90;;;;;;21061575;28;20363;-51
2022/06/19 19:34:47;;;;;;;5.72;3.30;;;;;;;;;;21045922;28;20503;-58
2022/06/19 19:44:49;;;;;;;8.32;4.13;;;16.70;99.30;;;;;;20976353;28;20032;-57
2022/06/19 19:54:54;;;;;;;8.48;5.15;;;16.40;99.90;;;;;;20975459;28;20074;-51
2022/06/19 20:04:58;;;;;;;5.72;4.20;;;16.20;99.90;;;;;;20975328;28;20446;-57
2022/06/19 20:15:02;;;;;;;6.40;4.63;;;16.40;99.90;;;;;;21055734;28;20115;-57
2022/06/19 20:25:28;;;;;;;8.45;5.55;;;16.20;99.90;;;;;;21056613;28;20040;-57
2022/06/19 20:35:35;;;;;;;8.75;5.18;;;15.70;99.90;;;;;;21056433;28;20043;-57
2022/06/19 20:45:38;;;;;;;6.55;4.97;;;15.50;99.90;;;;;;21055571;28;20105;-51
2022/06/19 20:55:41;;;;;;;7.80;5.35;;;15.40;99.90;;;;;;21027491;28;20024;-56
2022/06/19 21:05:48;;;;;;;7.03;5.53;;;15.20;99.90;;;;;;20970255;28;20032;-56
2022/06/19 21:15:53;;;;;;;8.07;6.15;;;15.10;99.90;;;;;;20969562;28;20491;-56
2022/06/19 21:25:58;;;;;;;8.68;5.95;;;15.10;99.90;;;;;;20968653;28;20414;-54
2022/06/19 21:36:02;;;;;;;11.65;6.15;;;15.20;99.90;;;;;;20993650;28;20507;-51
2022/06/19 21:46:18;;;;;;;7.40;4.70;;;15.40;99.90;;;;;;21034408;28;20167;-57
2022/06/19 21:56:22;;;;;;;6.88;4.88;;;15.60;99.90;;;;;;21050953;28;20082;-51
2022/06/19 22:06:29;;;;;;;6.68;5.32;;;15.80;99.90;;;;;;21041155;28;20553;-48
2022/06/19 22:16:32;;;;;;;7.07;4.82;;;15.70;99.90;;;;;;20965909;28;20086;-56
2022/06/19 22:26:37;;;;;;;8.07;4.68;;;15.50;99.90;;;;;;20965783;28;20036;-57
2022/06/19 22:36:44;;;;;;;6.35;5.20;;;15.40;99.90;;;;;;20965572;28;20056;-56
2022/06/19 22:46:47;;;;;;;6.55;4.32;;;15.30;99.90;;;;;;20965059;28;20098;-56
2022/06/19 22:56:53;;;;;;;9.18;5.18;;;15.10;99.90;;;;;;21015204;28;20040;-50
2022/06/19 23:06:56;;;;;;;9.43;5.47;;;15.10;99.90;;;;;;21063428;28;20436;-56
2022/06/19 23:17:08;;;;;;;8.90;5.20;;;14.90;99.90;;;;;;21062454;28;20105;-56
2022/06/19 23:27:25;;;;;;;6.22;5.00;;;14.90;99.90;;;;;;21061865;28;20090;-51
2022/06/19 23:37:28;;;;;;;7.13;4.93;;;14.70;99.90;;;;;;21023218;28;20036;-57
2022/06/19 23:47:31;;;;;;;8.55;5.68;;;14.50;99.90;;;;;;20976542;28;20086;-56
2022/06/19 23:57:35;;;;;;;8.00;5.00;;;14.50;99.90;;;;;;20975919;28;20044;-51
